createdAt,value
2018-04-17T00:00:06.098Z,5.8
2018-04-17T00:01:09.243Z,6
2018-04-17T00:02:11.886Z,5.8
2018-04-17T00:03:14.280Z,5.8
2018-04-17T00:04:16.664Z,5.8
2018-04-17T00:05:19.133Z,5.8
2018-04-17T00:06:21.565Z,5.7
2018-04-17T00:07:23.944Z,5.8
2018-04-17T00:08:26.359Z,5.7
2018-04-17T00:09:29.259Z,5.7
2018-04-17T00:10:32.039Z,5.7
2018-04-17T00:11:34.700Z,5.7
2018-04-17T00:12:37.105Z,5.7
2018-04-17T00:13:39.505Z,5.7
2018-04-17T00:14:41.918Z,5.8
2018-04-17T00:15:44.398Z,5.7
2018-04-17T00:16:46.789Z,5.7
2018-04-17T00:17:49.171Z,5.8
2018-04-17T00:18:51.983Z,5.8
2018-04-17T00:19:54.640Z,5.7
2018-04-17T00:20:57.312Z,5.8
2018-04-17T00:21:59.877Z,5.8
2018-04-17T00:23:02.262Z,5.8
2018-04-17T00:24:04.686Z,5.8
2018-04-17T00:25:07.290Z,5.8
2018-04-17T00:26:10.051Z,5.7
2018-04-17T00:27:12.727Z,5.9
2018-04-17T00:28:16.007Z,5.8
2018-04-17T00:29:18.682Z,5.7
2018-04-17T00:30:21.366Z,5.9
2018-04-17T00:31:24.620Z,5.7
2018-04-17T00:32:27.060Z,5.8
2018-04-17T00:33:29.666Z,5.6
2018-04-17T00:34:32.262Z,5.8
2018-04-17T00:35:34.641Z,5.8
2018-04-17T00:36:37.050Z,5.7
2018-04-17T00:37:39.595Z,5.7
2018-04-17T00:38:41.973Z,5.8
2018-04-17T00:39:44.940Z,5.8
2018-04-17T00:40:47.590Z,5.8
2018-04-17T00:41:49.977Z,5.7
2018-04-17T00:42:52.354Z,5.7
2018-04-17T00:43:54.961Z,5.7
2018-04-17T00:44:57.742Z,5.7
2018-04-17T00:46:00.115Z,5.6
2018-04-17T00:47:02.738Z,5.7
2018-04-17T00:48:05.512Z,5.8
2018-04-17T00:49:07.887Z,5.8
2018-04-17T00:50:10.449Z,5.7
2018-04-17T00:51:13.232Z,5.7
2018-04-17T00:52:15.611Z,5.8
2018-04-17T00:53:18.013Z,5.8
2018-04-17T00:54:20.698Z,5.7
2018-04-17T00:55:23.074Z,5.7
2018-04-17T00:56:25.765Z,5.7
2018-04-17T00:57:28.738Z,5.7
2018-04-17T00:58:31.401Z,5.7
2018-04-17T00:59:33.789Z,5.7
2018-04-17T01:00:36.782Z,5.8
2018-04-17T01:01:39.165Z,5.6
2018-04-17T01:02:41.552Z,5.8
2018-04-17T01:03:44.169Z,5.6
2018-04-17T01:04:46.534Z,5.6
2018-04-17T01:05:48.925Z,5.6
2018-04-17T01:06:51.639Z,5.5
2018-04-17T01:07:54.020Z,5.8
2018-04-17T01:08:57.076Z,5.7
2018-04-17T01:09:59.877Z,5.7
2018-04-17T01:11:02.259Z,5.7
2018-04-17T01:12:04.654Z,5.7
2018-04-17T01:13:07.579Z,5.7
2018-04-17T01:14:10.247Z,5.6
2018-04-17T01:15:12.628Z,5.6
2018-04-17T01:16:15.391Z,5.7
2018-04-17T01:17:17.777Z,5.7
2018-04-17T01:18:20.167Z,5.7
2018-04-17T01:19:22.869Z,5.6
2018-04-17T01:20:25.261Z,5.7
2018-04-17T01:21:27.644Z,5.7
2018-04-17T01:22:30.299Z,5.8
2018-04-17T01:23:32.667Z,5.5
2018-04-17T01:24:35.060Z,5.7
2018-04-17T01:25:37.434Z,5.6
2018-04-17T01:26:39.830Z,5.6
2018-04-17T01:27:42.208Z,5.6
2018-04-17T01:28:44.598Z,5.7
2018-04-17T01:29:47.121Z,5.7
2018-04-17T01:30:49.513Z,5.7
2018-04-17T01:31:51.887Z,5.7
2018-04-17T01:32:54.378Z,5.6
2018-04-17T01:33:56.761Z,5.6
2018-04-17T01:34:59.147Z,5.7
2018-04-17T01:36:01.816Z,5.7
2018-04-17T01:37:04.479Z,5.7
2018-04-17T01:38:07.153Z,5.5
2018-04-17T01:39:10.029Z,5.6
2018-04-17T01:40:12.417Z,5.6
2018-04-17T01:41:14.795Z,5.6
2018-04-17T01:42:17.488Z,5.7
2018-04-17T01:43:19.872Z,5.6
2018-04-17T01:44:22.257Z,5.7
2018-04-17T01:45:24.626Z,5.5
2018-04-17T01:46:27.222Z,5.6
2018-04-17T01:47:29.600Z,5.6
2018-04-17T01:48:32.262Z,5.6
2018-04-17T01:49:34.656Z,5.6
2018-04-17T01:50:37.032Z,5.5
2018-04-17T01:51:39.713Z,5.5
2018-04-17T01:52:42.091Z,5.6
2018-04-17T01:53:45.043Z,5.6
2018-04-17T01:54:47.419Z,5.7
2018-04-17T01:55:49.812Z,5.5
2018-04-17T01:56:52.192Z,5.5
2018-04-17T01:57:54.570Z,5.6
2018-04-17T01:58:56.952Z,5.5
2018-04-17T01:59:59.332Z,5.6
2018-04-17T02:01:01.723Z,5.6
2018-04-17T02:02:04.110Z,5.6
2018-04-17T02:03:06.778Z,5.6
2018-04-17T02:04:09.162Z,5.6
2018-04-17T02:05:11.546Z,5.6
2018-04-17T02:06:13.927Z,5.5
2018-04-17T02:07:16.307Z,5.5
2018-04-17T02:08:18.977Z,5.7
2018-04-17T02:09:21.644Z,5.6
2018-04-17T02:10:24.010Z,5.6
2018-04-17T02:11:26.386Z,5.5
2018-04-17T02:12:28.785Z,5.6
2018-04-17T02:13:31.448Z,5.5
2018-04-17T02:14:34.104Z,5.7
2018-04-17T02:15:36.498Z,5.5
2018-04-17T02:16:39.217Z,5.7
2018-04-17T02:17:41.938Z,5.6
2018-04-17T02:18:44.710Z,5.6
2018-04-17T02:19:47.079Z,5.7
2018-04-17T02:20:49.473Z,5.6
2018-04-17T02:21:51.858Z,5.6
2018-04-17T02:22:54.251Z,5.5
2018-04-17T02:23:57.014Z,5.8
2018-04-17T02:24:59.394Z,5.4
2018-04-17T02:26:01.761Z,5.6
2018-04-17T02:27:04.444Z,5.7
2018-04-17T02:28:06.831Z,5.6
2018-04-17T02:29:09.201Z,5.6
2018-04-17T02:30:11.873Z,5.5
2018-04-17T02:31:14.540Z,5.5
2018-04-17T02:32:17.213Z,5.6
2018-04-17T02:33:19.616Z,5.5
2018-04-17T02:34:21.993Z,5.5
2018-04-17T02:35:24.389Z,5.7
2018-04-17T02:36:26.783Z,5.5
2018-04-17T02:37:29.155Z,5.6
2018-04-17T02:38:32.098Z,5.5
2018-04-17T02:39:35.330Z,5.6
2018-04-17T02:40:37.715Z,5.6
2018-04-17T02:41:40.105Z,5.6
2018-04-17T02:42:43.147Z,5.5
2018-04-17T02:43:45.534Z,5.5
2018-04-17T02:44:47.911Z,5.5
2018-04-17T02:45:50.303Z,5.5
2018-04-17T02:46:52.680Z,5.6
2018-04-17T02:47:55.348Z,5.5
2018-04-17T02:48:58.003Z,5.5
2018-04-17T02:50:00.394Z,5.8
2018-04-17T02:51:03.435Z,5.5
2018-04-17T02:52:05.830Z,5.6
2018-04-17T02:53:08.207Z,5.5
2018-04-17T02:54:10.882Z,5.4
2018-04-17T02:55:13.282Z,5.5
2018-04-17T02:56:16.226Z,5.6
2018-04-17T02:57:19.075Z,5.6
2018-04-17T02:58:21.812Z,5.6
2018-04-17T02:59:24.200Z,5.7
2018-04-17T03:00:26.965Z,5.6
2018-04-17T03:01:29.349Z,5.6
2018-04-17T03:02:31.734Z,5.6
2018-04-17T03:03:34.770Z,5.4
2018-04-17T03:04:37.165Z,5.5
2018-04-17T03:05:39.822Z,5.5
2018-04-17T03:06:42.208Z,5.4
2018-04-17T03:07:45.153Z,5.4
2018-04-17T03:08:47.527Z,5.6
2018-04-17T03:09:49.929Z,5.4
2018-04-17T03:10:52.310Z,5.6
2018-04-17T03:11:54.693Z,5.6
2018-04-17T03:12:57.081Z,5.4
2018-04-17T03:13:59.456Z,5.5
2018-04-17T03:15:01.832Z,5.5
2018-04-17T03:16:04.603Z,5.6
2018-04-17T03:17:07.359Z,5.5
2018-04-17T03:18:09.732Z,5.6
2018-04-17T03:19:12.412Z,5.5
2018-04-17T03:20:14.789Z,5.5
2018-04-17T03:21:17.174Z,5.4
2018-04-17T03:22:19.561Z,5.5
2018-04-17T03:23:21.933Z,5.5
2018-04-17T03:24:24.321Z,5.5
2018-04-17T03:25:26.704Z,5.5
2018-04-17T03:26:29.085Z,5.6
2018-04-17T03:27:31.475Z,5.5
2018-04-17T03:28:33.852Z,5.4
2018-04-17T03:29:36.238Z,5.5
2018-04-17T03:30:38.900Z,5.5
2018-04-17T03:31:41.562Z,5.4
2018-04-17T03:32:43.933Z,5.4
2018-04-17T03:33:46.312Z,5.6
2018-04-17T03:34:48.684Z,5.5
2018-04-17T03:35:51.063Z,5.5
2018-04-17T03:36:53.455Z,5.5
2018-04-17T03:37:55.845Z,5.4
2018-04-17T03:38:58.227Z,5.4
2018-04-17T03:40:00.914Z,5.4
2018-04-17T03:41:03.285Z,5.5
2018-04-17T03:42:05.675Z,5.4
2018-04-17T03:43:08.320Z,5.5
2018-04-17T03:44:10.704Z,5.4
2018-04-17T03:45:13.367Z,5.4
2018-04-17T03:46:15.739Z,5.5
2018-04-17T03:47:18.125Z,5.4
2018-04-17T03:48:20.506Z,5.6
2018-04-17T03:49:22.888Z,5.4
2018-04-17T03:50:25.276Z,5.5
2018-04-17T03:51:27.985Z,5.5
2018-04-17T03:52:30.380Z,5.6
2018-04-17T03:53:32.763Z,5.4
2018-04-17T03:54:35.128Z,5.7
2018-04-17T03:55:37.796Z,5.5
2018-04-17T03:56:40.464Z,5.6
2018-04-17T03:57:42.843Z,5.6
2018-04-17T03:58:45.222Z,5.5
2018-04-17T03:59:47.596Z,5.5
2018-04-17T04:00:49.974Z,5.5
2018-04-17T04:01:52.371Z,5.5
2018-04-17T04:02:54.740Z,5.5
2018-04-17T04:03:57.123Z,5.5
2018-04-17T04:04:59.500Z,5.5
2018-04-17T04:06:01.899Z,5.4
2018-04-17T04:07:04.551Z,5.4
2018-04-17T04:08:07.325Z,5.4
2018-04-17T04:09:09.705Z,5.4
2018-04-17T04:10:12.080Z,5.3
2018-04-17T04:11:14.461Z,5.4
2018-04-17T04:12:16.836Z,5.5
2018-04-17T04:13:19.226Z,5.5
2018-04-17T04:14:21.608Z,5.5
2018-04-17T04:15:24.381Z,5.4
2018-04-17T04:16:26.769Z,5.4
2018-04-17T04:17:29.457Z,5.3
2018-04-17T04:18:32.228Z,5.4
2018-04-17T04:19:35.001Z,5.4
2018-04-17T04:20:37.376Z,5.5
2018-04-17T04:21:39.758Z,5.5
2018-04-17T04:22:42.147Z,5.5
2018-04-17T04:23:44.521Z,5.5
2018-04-17T04:24:46.915Z,5.4
2018-04-17T04:25:49.283Z,5.4
2018-04-17T04:26:51.663Z,5.3
2018-04-17T04:27:54.046Z,5.3
2018-04-17T04:28:56.412Z,5.4
2018-04-17T04:29:58.785Z,5.5
2018-04-17T04:31:01.173Z,5.4
2018-04-17T04:32:03.601Z,5.3
2018-04-17T04:33:05.937Z,5.5
2018-04-17T04:34:08.601Z,5.4
2018-04-17T04:35:10.964Z,5.4
2018-04-17T04:36:13.639Z,5.3
2018-04-17T04:37:16.012Z,5.4
2018-04-17T04:38:18.381Z,5.4
2018-04-17T04:39:20.756Z,5.4
2018-04-17T04:40:23.144Z,5.3
2018-04-17T04:41:25.514Z,5.4
2018-04-17T04:42:27.881Z,5.3
2018-04-17T04:43:30.271Z,5.4
2018-04-17T04:44:32.652Z,5.4
2018-04-17T04:45:35.042Z,5.4
2018-04-17T04:46:37.428Z,5.3
2018-04-17T04:47:39.799Z,5.4
2018-04-17T04:48:42.461Z,5.3
2018-04-17T04:49:44.840Z,5.4
2018-04-17T04:50:47.213Z,5.4
2018-04-17T04:51:49.864Z,5.3
2018-04-17T04:52:52.548Z,5.5
2018-04-17T04:53:54.918Z,5.4
2018-04-17T04:54:57.683Z,5.4
2018-04-17T04:56:00.057Z,5.3
2018-04-17T04:57:03.116Z,5.3
2018-04-17T04:58:05.778Z,5.3
2018-04-17T04:59:08.158Z,5.3
2018-04-17T05:00:10.541Z,5.3
2018-04-17T05:01:12.932Z,5.2
2018-04-17T05:02:15.310Z,5.3
2018-04-17T05:03:18.368Z,5.5
2018-04-17T05:04:21.016Z,5.3
2018-04-17T05:05:23.777Z,5.4
2018-04-17T05:06:26.449Z,5.3
2018-04-17T05:07:28.834Z,5.3
2018-04-17T05:08:31.196Z,5.4
2018-04-17T05:09:33.862Z,5.4
2018-04-17T05:10:36.235Z,5.3
2018-04-17T05:11:38.620Z,5.3
2018-04-17T05:12:40.988Z,5.3
2018-04-17T05:13:44.036Z,5.3
2018-04-17T05:14:46.691Z,5.4
2018-04-17T05:15:49.355Z,5.4
2018-04-17T05:16:51.736Z,5.2
2018-04-17T05:17:54.119Z,5.3
2018-04-17T05:18:56.800Z,5.3
2018-04-17T05:19:59.185Z,5.3
2018-04-17T05:21:01.577Z,5.3
2018-04-17T05:22:03.941Z,5.4
2018-04-17T05:23:06.982Z,5.4
2018-04-17T05:24:09.371Z,5.4
2018-04-17T05:25:11.747Z,5.4
2018-04-17T05:26:14.130Z,5.4
2018-04-17T05:27:16.885Z,5.3
2018-04-17T05:28:19.268Z,5.4
2018-04-17T05:29:21.642Z,5.3
2018-04-17T05:30:24.326Z,5.5
2018-04-17T05:31:26.692Z,5.4
2018-04-17T05:32:29.068Z,5.3
2018-04-17T05:33:31.453Z,5.4
2018-04-17T05:34:33.839Z,5.3
2018-04-17T05:35:36.224Z,5.3
2018-04-17T05:36:38.895Z,5.3
2018-04-17T05:37:41.265Z,5.3
2018-04-17T05:38:43.667Z,5.3
2018-04-17T05:39:46.045Z,5.4
2018-04-17T05:40:48.864Z,5.4
2018-04-17T05:41:51.349Z,5.5
2018-04-17T05:42:53.720Z,5.4
2018-04-17T05:43:56.106Z,5.4
2018-04-17T05:44:58.486Z,5.3
2018-04-17T05:46:00.870Z,5.3
2018-04-17T05:47:03.245Z,5.4
2018-04-17T05:48:06.286Z,5.4
2018-04-17T05:49:08.668Z,5.5
2018-04-17T05:50:11.434Z,5.4
2018-04-17T05:51:14.156Z,5.4
2018-04-17T05:52:16.542Z,5.5
2018-04-17T05:53:19.224Z,5.4
2018-04-17T05:54:21.609Z,5.4
2018-04-17T05:55:24.272Z,5.4
2018-04-17T05:56:26.651Z,5.5
2018-04-17T05:57:29.029Z,5.4
2018-04-17T05:58:31.415Z,5.4
2018-04-17T05:59:34.096Z,5.5
2018-04-17T06:00:36.771Z,5.4
2018-04-17T06:01:39.153Z,5.4
2018-04-17T06:02:41.817Z,5.4
2018-04-17T06:03:44.475Z,5.4
2018-04-17T06:04:46.859Z,5.4
2018-04-17T06:05:49.535Z,5.3
2018-04-17T06:06:51.916Z,5.4
2018-04-17T06:07:54.573Z,5.3
2018-04-17T06:08:56.962Z,5.4
2018-04-17T06:09:59.340Z,5.5
2018-04-17T06:11:01.730Z,5.4
2018-04-17T06:12:04.105Z,5.4
2018-04-17T06:13:06.495Z,5.5
2018-04-17T06:14:09.160Z,5.4
2018-04-17T06:15:11.549Z,5.4
2018-04-17T06:16:14.205Z,5.4
2018-04-17T06:17:16.596Z,5.5
2018-04-17T06:18:18.969Z,5.6
2018-04-17T06:19:21.355Z,5.6
2018-04-17T06:20:23.739Z,5.6
2018-04-17T06:21:26.135Z,5.4
2018-04-17T06:22:28.814Z,5.4
2018-04-17T06:23:31.249Z,5.5
2018-04-17T06:24:33.632Z,5.5
2018-04-17T06:25:36.038Z,5.5
2018-04-17T06:26:38.698Z,5.5
2018-04-17T06:27:41.089Z,5.6
2018-04-17T06:28:43.485Z,5.4
2018-04-17T06:29:45.879Z,5.5
2018-04-17T06:30:48.355Z,5.5
2018-04-17T06:31:50.738Z,5.6
2018-04-17T06:32:53.131Z,5.5
2018-04-17T06:33:55.557Z,5.5
2018-04-17T06:34:58.332Z,5.5
2018-04-17T06:36:00.992Z,5.5
2018-04-17T06:37:03.458Z,5.5
2018-04-17T06:38:05.839Z,5.6
2018-04-17T06:39:08.212Z,5.5
2018-04-17T06:40:10.667Z,5.5
2018-04-17T06:41:13.050Z,5.5
2018-04-17T06:42:15.418Z,5.5
2018-04-17T06:43:17.814Z,5.7
2018-04-17T06:44:20.863Z,5.5
2018-04-17T06:45:23.384Z,5.5
2018-04-17T06:46:25.776Z,5.5
2018-04-17T06:47:28.560Z,5.6
2018-04-17T06:48:31.256Z,5.6
2018-04-17T06:49:33.650Z,5.5
2018-04-17T06:50:36.417Z,5.6
2018-04-17T06:51:39.124Z,5.5
2018-04-17T06:52:42.653Z,5.6
2018-04-17T06:53:45.004Z,5.6
2018-04-17T06:54:47.672Z,5.6
2018-04-17T06:55:50.073Z,5.5
2018-04-17T06:56:52.451Z,5.6
2018-04-17T06:57:54.842Z,5.6
2018-04-17T06:58:57.509Z,5.5
2018-04-17T06:59:59.890Z,5.6
2018-04-17T07:01:02.285Z,5.6
2018-04-17T07:02:05.269Z,5.6
2018-04-17T07:03:07.637Z,5.6
2018-04-17T07:04:10.031Z,5.6
2018-04-17T07:05:13.109Z,5.6
2018-04-17T07:06:16.170Z,5.6
2018-04-17T07:07:18.557Z,5.6
2018-04-17T07:08:20.942Z,5.5
2018-04-17T07:09:23.328Z,5.6
2018-04-17T07:10:26.098Z,5.5
2018-04-17T07:11:28.479Z,5.5
2018-04-17T07:12:30.877Z,5.7
2018-04-17T07:13:33.263Z,5.7
2018-04-17T07:14:35.638Z,5.6
2018-04-17T07:15:38.027Z,5.6
2018-04-17T07:16:40.694Z,5.5
2018-04-17T07:17:43.077Z,5.6
2018-04-17T07:18:45.809Z,5.6
2018-04-17T07:19:48.733Z,5.8
2018-04-17T07:20:51.295Z,5.6
2018-04-17T07:21:54.001Z,5.8
2018-04-17T07:22:56.715Z,5.7
2018-04-17T07:23:59.509Z,5.6
2018-04-17T07:25:02.466Z,5.5
2018-04-17T07:26:05.348Z,5.6
2018-04-17T07:27:08.416Z,5.8
2018-04-17T07:28:10.795Z,5.8
2018-04-17T07:29:13.628Z,5.6
2018-04-17T07:30:16.616Z,5.6
2018-04-17T07:31:19.150Z,5.7
2018-04-17T07:32:21.529Z,5.6
2018-04-17T07:33:24.192Z,5.7
2018-04-17T07:34:26.580Z,5.6
2018-04-17T07:35:28.974Z,5.6
2018-04-17T07:36:31.352Z,5.7
2018-04-17T07:37:33.745Z,5.8
2018-04-17T07:38:36.132Z,5.6
2018-04-17T07:39:38.511Z,5.5
2018-04-17T07:40:40.890Z,5.6
2018-04-17T07:41:43.280Z,5.6
2018-04-17T07:42:45.666Z,5.8
2018-04-17T07:43:48.334Z,5.7
2018-04-17T07:44:50.999Z,5.6
2018-04-17T07:45:53.680Z,5.7
2018-04-17T07:46:56.355Z,5.8
2018-04-17T07:47:58.747Z,5.6
2018-04-17T07:49:01.126Z,5.6
2018-04-17T07:50:03.804Z,5.9
2018-04-17T07:51:06.466Z,5.8
2018-04-17T07:52:09.129Z,5.9
2018-04-17T07:53:11.804Z,5.8
2018-04-17T07:54:14.583Z,5.8
2018-04-17T07:55:17.083Z,5.7
2018-04-17T07:56:19.477Z,5.7
2018-04-17T07:57:21.855Z,5.8
2018-04-17T07:58:24.242Z,5.7
2018-04-17T07:59:26.631Z,5.7
2018-04-17T08:00:29.017Z,5.9
2018-04-17T08:01:31.390Z,5.7
2018-04-17T08:02:33.791Z,5.7
2018-04-17T08:03:36.179Z,5.8
2018-04-17T08:04:38.559Z,5.7
2018-04-17T08:05:41.017Z,5.7
2018-04-17T08:06:43.661Z,5.8
2018-04-17T08:07:46.320Z,5.8
2018-04-17T08:08:49.329Z,5.8
2018-04-17T08:09:51.713Z,5.7
2018-04-17T08:10:54.088Z,5.8
2018-04-17T08:11:57.315Z,5.7
2018-04-17T08:13:00.152Z,5.8
2018-04-17T08:14:02.530Z,5.7
2018-04-17T08:15:04.920Z,5.7
2018-04-17T08:16:07.439Z,5.6
2018-04-17T08:17:09.825Z,5.7
2018-04-17T08:18:12.218Z,5.8
2018-04-17T08:19:14.875Z,5.8
2018-04-17T08:20:17.266Z,5.9
2018-04-17T08:21:19.654Z,5.7
2018-04-17T08:22:22.046Z,5.7
2018-04-17T08:23:24.428Z,5.8
2018-04-17T08:24:27.116Z,5.7
2018-04-17T08:25:29.504Z,5.8
2018-04-17T08:26:32.286Z,5.7
2018-04-17T08:27:34.661Z,5.9
2018-04-17T08:28:37.441Z,5.7
2018-04-17T08:29:40.206Z,5.8
2018-04-17T08:30:42.600Z,5.7
2018-04-17T08:31:44.987Z,5.8
2018-04-17T08:32:47.676Z,5.8
2018-04-17T08:33:50.496Z,5.8
2018-04-17T08:34:52.900Z,5.8
2018-04-17T08:35:55.558Z,5.9
2018-04-17T08:36:57.975Z,5.8
2018-04-17T08:38:00.333Z,5.8
2018-04-17T08:39:03.383Z,5.9
2018-04-17T08:40:05.768Z,5.8
2018-04-17T08:41:08.186Z,5.9
2018-04-17T08:42:10.939Z,5.8
2018-04-17T08:43:13.350Z,5.9
2018-04-17T08:44:16.203Z,5.8
2018-04-17T08:45:18.866Z,5.9
2018-04-17T08:46:21.257Z,5.9
2018-04-17T08:47:23.652Z,5.9
2018-04-17T08:48:26.041Z,5.9
2018-04-17T08:49:28.445Z,5.9
2018-04-17T08:50:30.824Z,5.9
2018-04-17T08:51:33.330Z,5.9
2018-04-17T08:52:35.957Z,5.9
2018-04-17T08:53:38.341Z,6
2018-04-17T08:54:41.131Z,5.9
2018-04-17T08:55:43.514Z,5.8
2018-04-17T08:56:45.898Z,5.9
2018-04-17T08:57:48.296Z,6
2018-04-17T08:58:50.683Z,5.9
2018-04-17T08:59:53.066Z,5.9
2018-04-17T09:00:56.141Z,6
2018-04-17T09:01:58.981Z,6
2018-04-17T09:03:02.263Z,6
2018-04-17T09:04:04.970Z,6
2018-04-17T09:05:07.389Z,5.9
2018-04-17T09:06:10.066Z,6
2018-04-17T09:07:12.446Z,6
2018-04-17T09:08:14.834Z,6
2018-04-17T09:09:17.551Z,5.9
2018-04-17T09:10:19.960Z,5.9
2018-04-17T09:11:22.353Z,6
2018-04-17T09:12:25.189Z,6
2018-04-17T09:13:27.584Z,5.9
2018-04-17T09:14:29.982Z,6
2018-04-17T09:15:32.382Z,6.1
2018-04-17T09:16:34.759Z,5.9
2018-04-17T09:17:37.168Z,6
2018-04-17T09:18:39.848Z,6.1
2018-04-17T09:19:42.308Z,6
2018-04-17T09:20:44.956Z,6.1
2018-04-17T09:21:47.348Z,6.1
2018-04-17T09:22:50.027Z,6.1
2018-04-17T09:23:52.421Z,5.9
2018-04-17T09:24:54.811Z,6.1
2018-04-17T09:25:57.219Z,6
2018-04-17T09:26:59.621Z,6.1
2018-04-17T09:28:02.405Z,6.2
2018-04-17T09:29:04.807Z,6.1
2018-04-17T09:30:07.494Z,6.2
2018-04-17T09:31:09.880Z,6.1
2018-04-17T09:32:12.279Z,6.1
2018-04-17T09:33:15.734Z,6.2
2018-04-17T09:34:18.497Z,6.1
2018-04-17T09:35:20.896Z,6.2
2018-04-17T09:36:23.291Z,6.3
2018-04-17T09:37:25.982Z,6.4
2018-04-17T09:38:28.384Z,6.2
2018-04-17T09:39:31.081Z,6.2
2018-04-17T09:40:33.910Z,6.2
2018-04-17T09:41:36.689Z,6.2
2018-04-17T09:42:39.474Z,6.3
2018-04-17T09:43:42.149Z,6.2
2018-04-17T09:44:44.546Z,6.3
2018-04-17T09:45:46.943Z,6.3
2018-04-17T09:46:49.349Z,6.2
2018-04-17T09:47:51.784Z,6.2
2018-04-17T09:48:55.022Z,6.2
2018-04-17T09:49:57.446Z,6.3
2018-04-17T09:50:59.800Z,6.2
2018-04-17T09:52:02.216Z,6.2
2018-04-17T09:53:05.483Z,6.2
2018-04-17T09:54:08.150Z,6.3
2018-04-17T09:55:10.963Z,6.1
2018-04-17T09:56:13.640Z,6.1
2018-04-17T09:57:16.041Z,6.2
2018-04-17T09:58:18.767Z,6.2
2018-04-17T09:59:22.120Z,6.2
2018-04-17T10:00:24.511Z,6.1
2018-04-17T10:01:27.212Z,6.3
2018-04-17T10:02:30.148Z,6.2
2018-04-17T10:03:33.335Z,6.3
2018-04-17T10:04:35.669Z,6.3
2018-04-17T10:05:38.336Z,6.3
2018-04-17T10:06:40.728Z,6.2
2018-04-17T10:07:43.143Z,6.2
2018-04-17T10:08:45.620Z,6.3
2018-04-17T10:09:48.320Z,6.2
2018-04-17T10:10:50.712Z,6.2
2018-04-17T10:11:53.108Z,6.2
2018-04-17T10:12:55.884Z,6.2
2018-04-17T10:13:58.290Z,6.2
2018-04-17T10:15:00.674Z,6.3
2018-04-17T10:16:03.068Z,6.2
2018-04-17T10:17:05.474Z,6.3
2018-04-17T10:18:08.138Z,6.2
2018-04-17T10:19:10.545Z,6.3
2018-04-17T10:20:12.931Z,6.2
2018-04-17T10:21:15.331Z,6.1
2018-04-17T10:22:18.006Z,6.1
2018-04-17T10:23:20.692Z,6.2
2018-04-17T10:24:23.086Z,6.2
2018-04-17T10:25:25.494Z,6.2
2018-04-17T10:26:27.891Z,6.1
2018-04-17T10:27:30.565Z,6
2018-04-17T10:28:33.256Z,6.1
2018-04-17T10:29:35.924Z,6.1
2018-04-17T10:30:38.596Z,6.2
2018-04-17T10:31:40.978Z,6.1
2018-04-17T10:32:43.383Z,6.1
2018-04-17T10:33:45.772Z,6.1
2018-04-17T10:34:48.551Z,6.1
2018-04-17T10:35:50.950Z,6.1
2018-04-17T10:36:53.356Z,6
2018-04-17T10:37:55.746Z,6
2018-04-17T10:38:58.158Z,6
2018-04-17T10:40:00.534Z,6.1
2018-04-17T10:41:03.502Z,6.1
2018-04-17T10:42:05.901Z,6
2018-04-17T10:43:08.957Z,6.1
2018-04-17T10:44:11.356Z,6.2
2018-04-17T10:45:13.738Z,6
2018-04-17T10:46:16.419Z,6.1
2018-04-17T10:47:18.812Z,6.1
2018-04-17T10:48:21.487Z,6.1
2018-04-17T10:49:24.177Z,6.1
2018-04-17T10:50:26.865Z,6.1
2018-04-17T10:51:29.659Z,6
2018-04-17T10:52:32.058Z,6.2
2018-04-17T10:53:34.751Z,6
2018-04-17T10:54:37.138Z,6.1
2018-04-17T10:55:39.528Z,6
2018-04-17T10:56:42.038Z,6.1
2018-04-17T10:57:44.981Z,6
2018-04-17T10:58:47.382Z,6
2018-04-17T10:59:50.491Z,5.9
2018-04-17T11:00:52.886Z,6.1
2018-04-17T11:01:55.664Z,6.1
2018-04-17T11:02:58.359Z,6.2
2018-04-17T11:04:00.781Z,6.2
2018-04-17T11:05:03.423Z,6.1
2018-04-17T11:06:06.117Z,6.1
2018-04-17T11:07:08.503Z,6
2018-04-17T11:08:10.895Z,6
2018-04-17T11:09:13.562Z,6
2018-04-17T11:10:16.806Z,6.1
2018-04-17T11:11:19.203Z,6
2018-04-17T11:12:21.891Z,6.2
2018-04-17T11:13:24.286Z,6.2
2018-04-17T11:14:26.960Z,6.2
2018-04-17T11:15:29.361Z,6
2018-04-17T11:16:32.035Z,6.1
2018-04-17T11:17:34.433Z,6.1
2018-04-17T11:18:36.833Z,6.1
2018-04-17T11:19:39.232Z,6.1
2018-04-17T11:20:41.626Z,6.1
2018-04-17T11:21:44.308Z,6.1
2018-04-17T11:22:46.691Z,6.1
2018-04-17T11:23:49.083Z,6.1
2018-04-17T11:24:51.859Z,6.1
2018-04-17T11:25:54.244Z,6.2
2018-04-17T11:26:57.034Z,6.1
2018-04-17T11:28:00.037Z,6.1
2018-04-17T11:29:02.431Z,6.2
2018-04-17T11:30:04.875Z,6.2
2018-04-17T11:31:07.281Z,6.2
2018-04-17T11:32:09.743Z,6.1
2018-04-17T11:33:12.526Z,6.2
2018-04-17T11:34:14.948Z,6.2
2018-04-17T11:35:17.601Z,6.1
2018-04-17T11:36:20.058Z,6.1
2018-04-17T11:37:22.464Z,6.2
2018-04-17T11:38:24.893Z,6.1
2018-04-17T11:39:27.314Z,6.3
2018-04-17T11:40:29.711Z,6.2
2018-04-17T11:41:32.163Z,6.2
2018-04-17T11:42:34.579Z,6.1
2018-04-17T11:43:37.342Z,6.3
2018-04-17T11:44:39.839Z,6.5
2018-04-17T11:45:42.240Z,6.2
2018-04-17T11:46:44.632Z,6.2
2018-04-17T11:47:47.041Z,6.3
2018-04-17T11:48:49.440Z,6.2
2018-04-17T11:49:51.833Z,6.3
2018-04-17T11:50:54.225Z,6.2
2018-04-17T11:51:56.637Z,6.2
2018-04-17T11:52:59.023Z,6.3
2018-04-17T11:54:01.426Z,6.3
2018-04-17T11:55:04.103Z,6.3
2018-04-17T11:56:06.673Z,6.3
2018-04-17T11:57:09.073Z,6.2
2018-04-17T11:58:11.702Z,6.2
2018-04-17T11:59:14.385Z,6.2
2018-04-17T12:00:17.130Z,6.2
2018-04-17T12:01:19.523Z,6.2
2018-04-17T12:02:22.022Z,6.2
2018-04-17T12:03:24.389Z,6.2
2018-04-17T12:04:27.106Z,6.2
2018-04-17T12:05:29.513Z,6.2
2018-04-17T12:06:32.035Z,6.2
2018-04-17T12:07:34.829Z,6.4
2018-04-17T12:08:37.432Z,6.3
2018-04-17T12:10:10.396Z,6.4
2018-04-17T12:11:13.143Z,6.4
2018-04-17T12:12:15.586Z,6.3
2018-04-17T12:13:18.016Z,6.3
2018-04-17T12:14:21.492Z,6.3
2018-04-17T12:15:24.258Z,6.3
2018-04-17T12:16:26.652Z,6.3
2018-04-17T12:17:29.783Z,6.3
2018-04-17T12:18:32.209Z,6.3
2018-04-17T12:19:34.920Z,6.3
2018-04-17T12:20:37.606Z,6.3
2018-04-17T12:21:40.007Z,6.3
2018-04-17T12:22:43.141Z,6.3
2018-04-17T12:23:45.744Z,6.3
2018-04-17T12:24:48.780Z,6.4
2018-04-17T12:25:51.821Z,6.4
2018-04-17T12:26:54.889Z,6.4
2018-04-17T12:27:57.748Z,6.4
2018-04-17T12:29:00.278Z,6.3
2018-04-17T12:30:03.114Z,6.4
2018-04-17T12:31:05.514Z,6.6
2018-04-17T12:32:07.901Z,6.4
2018-04-17T12:33:10.306Z,6.5
2018-04-17T12:34:12.703Z,6.5
2018-04-17T12:35:15.116Z,6.4
2018-04-17T12:36:17.792Z,6.4
2018-04-17T12:37:20.482Z,6.4
2018-04-17T12:38:22.887Z,6.3
2018-04-17T12:39:25.302Z,6.4
2018-04-17T12:40:27.990Z,6.5
2018-04-17T12:41:30.383Z,6.4
2018-04-17T12:42:32.776Z,6.5
2018-04-17T12:43:35.188Z,6.4
2018-04-17T12:44:37.587Z,6.4
2018-04-17T12:45:39.993Z,6.6
2018-04-17T12:46:42.398Z,6.6
2018-04-17T12:47:44.803Z,6.8
2018-04-17T12:48:47.211Z,7.1
2018-04-17T12:49:49.626Z,7.1
2018-04-17T12:50:52.011Z,7.1
2018-04-17T12:51:54.761Z,6.8
2018-04-17T12:52:57.168Z,6.6
2018-04-17T12:53:59.564Z,6.7
2018-04-17T12:55:02.256Z,6.7
2018-04-17T12:56:05.041Z,6.5
2018-04-17T12:57:07.436Z,6.8
2018-04-17T12:58:09.850Z,6.6
2018-04-17T12:59:12.242Z,6.4
2018-04-17T13:00:14.650Z,7.2
2018-04-17T13:01:17.051Z,6.5
2018-04-17T13:02:19.457Z,6.5
2018-04-17T13:03:22.241Z,6.9
2018-04-17T13:04:24.643Z,6.7
2018-04-17T13:05:27.036Z,6.9
2018-04-17T13:06:29.432Z,6.8
2018-04-17T13:07:31.843Z,6.7
2018-04-17T13:08:34.239Z,7
2018-04-17T13:09:37.018Z,6.9
2018-04-17T13:10:39.456Z,6.7
2018-04-17T13:11:41.852Z,7
2018-04-17T13:12:44.265Z,7.6
2018-04-17T13:13:46.673Z,7
2018-04-17T13:14:49.336Z,6.7
2018-04-17T13:15:51.735Z,7.1
2018-04-17T13:16:54.141Z,7.1
2018-04-17T13:17:56.546Z,6.9
2018-04-17T13:18:58.946Z,6.9
2018-04-17T13:20:01.340Z,6.8
2018-04-17T13:21:04.029Z,6.9
2018-04-17T13:22:06.751Z,6.8
2018-04-17T13:23:09.149Z,7.1
2018-04-17T13:24:11.551Z,7
2018-04-17T13:25:13.947Z,6.8
2018-04-17T13:26:16.348Z,6.9
2018-04-17T13:27:18.760Z,7.6
2018-04-17T13:28:21.157Z,7
2018-04-17T13:29:23.846Z,7.2
2018-04-17T13:30:26.538Z,7
2018-04-17T13:31:29.232Z,7.5
2018-04-17T13:32:31.651Z,7.2
2018-04-17T13:33:34.039Z,7.5
2018-04-17T13:34:36.439Z,7.3
2018-04-17T13:35:39.114Z,7
2018-04-17T13:36:41.518Z,7.2
2018-04-17T13:37:43.934Z,7.1
2018-04-17T13:38:46.327Z,7.3
2018-04-17T13:39:48.728Z,7.2
2018-04-17T13:40:51.130Z,7.3
2018-04-17T13:41:53.923Z,7
2018-04-17T13:42:56.339Z,6.8
2018-04-17T13:43:58.737Z,7.5
2018-04-17T13:45:01.414Z,7
2018-04-17T13:46:03.841Z,7
2018-04-17T13:47:06.230Z,7.1
2018-04-17T13:48:08.639Z,7.2
2018-04-17T13:49:11.065Z,7.4
2018-04-17T13:50:13.460Z,7.1
2018-04-17T13:51:15.871Z,7.1
2018-04-17T13:52:18.284Z,7.1
2018-04-17T13:53:20.822Z,7.6
2018-04-17T13:54:23.239Z,7.4
2018-04-17T13:55:25.720Z,7.5
2018-04-17T13:56:28.821Z,7.6
2018-04-17T13:57:31.225Z,7.3
2018-04-17T13:58:33.635Z,7.2
2018-04-17T13:59:36.102Z,7.4
2018-04-17T14:00:38.494Z,7.2
2018-04-17T14:01:40.889Z,7.3
2018-04-17T14:02:43.302Z,7.4
2018-04-17T14:03:45.985Z,7.2
2018-04-17T14:04:48.880Z,7.2
2018-04-17T14:05:51.282Z,7.3
2018-04-17T14:06:54.227Z,7.6
2018-04-17T14:07:56.627Z,7.5
2018-04-17T14:08:59.031Z,7.6
2018-04-17T14:10:01.434Z,7.7
2018-04-17T14:11:03.874Z,7.5
2018-04-17T14:12:06.275Z,7.5
2018-04-17T14:13:09.349Z,7.9
2018-04-17T14:14:11.743Z,7.4
2018-04-17T14:15:14.153Z,7.8
2018-04-17T14:16:16.688Z,7.3
2018-04-17T14:17:19.169Z,7.5
2018-04-17T14:18:22.019Z,7.5
2018-04-17T14:19:24.733Z,7.5
2018-04-17T14:20:28.425Z,7.6
2018-04-17T14:21:31.021Z,7.6
2018-04-17T14:22:33.428Z,8
2018-04-17T14:23:36.150Z,8.2
2018-04-17T14:24:38.548Z,7.9